sensor_id;sensor_type;location;lat;lon;timestamp;pressure;altitude;pressure_sealevel;temperature;humidity
65276;BME280;51875;49.994;14.052;2023-09-19T00:00:10;97759.69;;;17.72;100.00
65276;BME280;51875;49.994;14.052;2023-09-19T00:01:29;97747.50;;;17.70;100.00
65276;BME280;51875;49.994;14.052;2023-09-19T00:02:55;97760.97;;;17.67;100.00
65276;BME280;51875;49.994;14.052;2023-09-19T00:04:14;97758.31;;;17.67;100.00
65276;BME280;51875;49.994;14.052;2023-09-19T00:05:33;97765.28;;;17.68;100.00
65276;BME280;51875;49.994;14.052;2023-09-19T00:06:50;97754.19;;;17.62;100.00
65276;BME280;51875;49.994;14.052;2023-09-19T00:08:05;97759.66;;;17.59;100.00
65276;BME280;51875;49.994;14.052;2023-09-19T00:09:21;97750.16;;;17.57;100.00
65276;BME280;51875;49.994;14.052;2023-09-19T00:10:36;97749.59;;;17.51;100.00
65276;BME280;51875;49.994;14.052;2023-09-19T00:11:52;97746.34;;;17.48;100.00
65276;BME280;51875;49.994;14.052;2023-09-19T00:13:08;97742.91;;;17.46;100.00
65276;BME280;51875;49.994;14.052;2023-09-19T00:14:28;97749.81;;;17.35;100.00
65276;BME280;51875;49.994;14.052;2023-09-19T00:15:45;97748.28;;;17.31;100.00
65276;BME280;51875;49.994;14.052;2023-09-19T00:17:04;97755.78;;;17.25;100.00
65276;BME280;51875;49.994;14.052;2023-09-19T00:18:24;97746.50;;;17.19;100.00
65276;BME280;51875;49.994;14.052;2023-09-19T00:19:43;97750.03;;;17.05;100.00
65276;BME280;51875;49.994;14.052;2023-09-19T00:20:59;97749.56;;;16.98;100.00
65276;BME280;51875;49.994;14.052;2023-09-19T00:22:14;97757.13;;;17.04;100.00
65276;BME280;51875;49.994;14.052;2023-09-19T00:23:31;97762.44;;;17.04;100.00
65276;BME280;51875;49.994;14.052;2023-09-19T00:24:47;97762.59;;;17.01;100.00
65276;BME280;51875;49.994;14.052;2023-09-19T00:26:03;97769.22;;;16.94;100.00
65276;BME280;51875;49.994;14.052;2023-09-19T00:27:19;97766.78;;;16.91;100.00
65276;BME280;51875;49.994;14.052;2023-09-19T00:28:35;97769.59;;;16.88;100.00
65276;BME280;51875;49.994;14.052;2023-09-19T00:29:50;97767.06;;;16.86;100.00
65276;BME280;51875;49.994;14.052;2023-09-19T00:31:08;97765.38;;;16.85;100.00
65276;BME280;51875;49.994;14.052;2023-09-19T00:32:24;97775.97;;;16.85;100.00
65276;BME280;51875;49.994;14.052;2023-09-19T00:33:39;97766.00;;;16.89;100.00
65276;BME280;51875;49.994;14.052;2023-09-19T00:34:55;97766.47;;;16.95;100.00
65276;BME280;51875;49.994;14.052;2023-09-19T00:36:11;97767.16;;;16.99;100.00
65276;BME280;51875;49.994;14.052;2023-09-19T00:37:27;97754.00;;;16.98;100.00
65276;BME280;51875;49.994;14.052;2023-09-19T00:38:42;97759.13;;;17.01;100.00
65276;BME280;51875;49.994;14.052;2023-09-19T00:39:59;97757.31;;;17.01;100.00
65276;BME280;51875;49.994;14.052;2023-09-19T00:41:15;97758.06;;;17.03;100.00
65276;BME280;51875;49.994;14.052;2023-09-19T00:42:31;97755.41;;;17.03;100.00
65276;BME280;51875;49.994;14.052;2023-09-19T00:43:47;97754.50;;;17.04;100.00
65276;BME280;51875;49.994;14.052;2023-09-19T00:45:10;97756.56;;;16.99;100.00
65276;BME280;51875;49.994;14.052;2023-09-19T00:46:27;97756.75;;;16.96;100.00
65276;BME280;51875;49.994;14.052;2023-09-19T00:47:50;97764.31;;;16.88;100.00
65276;BME280;51875;49.994;14.052;2023-09-19T00:49:07;97762.38;;;16.77;100.00
65276;BME280;51875;49.994;14.052;2023-09-19T00:50:24;97764.81;;;16.80;100.00
65276;BME280;51875;49.994;14.052;2023-09-19T00:51:41;97769.16;;;16.81;100.00
65276;BME280;51875;49.994;14.052;2023-09-19T00:53:01;97761.34;;;16.79;100.00
65276;BME280;51875;49.994;14.052;2023-09-19T00:54:23;97759.44;;;16.82;100.00
65276;BME280;51875;49.994;14.052;2023-09-19T00:55:38;97769.66;;;16.73;100.00
65276;BME280;51875;49.994;14.052;2023-09-19T00:56:55;97758.91;;;16.62;100.00
65276;BME280;51875;49.994;14.052;2023-09-19T00:58:11;97753.63;;;16.62;100.00
65276;BME280;51875;49.994;14.052;2023-09-19T00:59:27;97757.63;;;16.55;100.00
65276;BME280;51875;49.994;14.052;2023-09-19T01:00:47;97752.38;;;16.67;100.00
65276;BME280;51875;49.994;14.052;2023-09-19T01:02:03;97763.06;;;16.66;100.00
65276;BME280;51875;49.994;14.052;2023-09-19T01:03:19;97758.81;;;16.63;100.00
65276;BME280;51875;49.994;14.052;2023-09-19T01:04:36;97764.19;;;16.62;100.00
65276;BME280;51875;49.994;14.052;2023-09-19T01:05:51;97765.13;;;16.61;100.00
65276;BME280;51875;49.994;14.052;2023-09-19T01:07:07;97765.91;;;16.63;100.00
65276;BME280;51875;49.994;14.052;2023-09-19T01:08:23;97764.84;;;16.65;100.00
65276;BME280;51875;49.994;14.052;2023-09-19T01:09:44;97761.91;;;16.70;100.00
65276;BME280;51875;49.994;14.052;2023-09-19T01:11:09;97760.47;;;16.79;100.00
65276;BME280;51875;49.994;14.052;2023-09-19T01:14:16;97754.03;;;16.83;100.00
65276;BME280;51875;49.994;14.052;2023-09-19T01:17:14;97760.19;;;16.84;100.00
65276;BME280;51875;49.994;14.052;2023-09-19T01:23:11;97767.03;;;16.59;100.00
65276;BME280;51875;49.994;14.052;2023-09-19T01:28:52;97767.69;;;16.62;100.00
65276;BME280;51875;49.994;14.052;2023-09-19T01:30:15;97769.47;;;16.62;100.00
65276;BME280;51875;49.994;14.052;2023-09-19T01:31:33;97772.41;;;16.72;100.00
65276;BME280;51875;49.994;14.052;2023-09-19T01:32:53;97765.59;;;16.67;100.00
65276;BME280;51875;49.994;14.052;2023-09-19T01:34:09;97765.97;;;16.76;100.00
65276;BME280;51875;49.994;14.052;2023-09-19T01:35:24;97762.31;;;16.64;100.00
65276;BME280;51875;49.994;14.052;2023-09-19T01:36:40;97764.06;;;16.78;100.00
65276;BME280;51875;49.994;14.052;2023-09-19T01:37:56;97761.34;;;16.79;100.00
65276;BME280;51875;49.994;14.052;2023-09-19T01:39:12;97757.28;;;16.74;100.00
65276;BME280;51875;49.994;14.052;2023-09-19T01:40:28;97763.41;;;16.74;100.00
65276;BME280;51875;49.994;14.052;2023-09-19T01:41:58;97759.66;;;16.78;100.00
65276;BME280;51875;49.994;14.052;2023-09-19T01:43:28;97762.66;;;16.72;100.00
65276;BME280;51875;49.994;14.052;2023-09-19T01:47:34;97763.63;;;16.71;100.00
65276;BME280;51875;49.994;14.052;2023-09-19T01:49:09;97772.00;;;16.78;100.00
65276;BME280;51875;49.994;14.052;2023-09-19T01:50:42;97764.94;;;16.78;100.00
65276;BME280;51875;49.994;14.052;2023-09-19T01:52:08;97756.69;;;16.83;100.00
65276;BME280;51875;49.994;14.052;2023-09-19T01:53:53;97763.97;;;16.79;100.00
65276;BME280;51875;49.994;14.052;2023-09-19T01:55:11;97755.38;;;16.76;100.00
65276;BME280;51875;49.994;14.052;2023-09-19T01:56:37;97755.69;;;16.71;100.00
65276;BME280;51875;49.994;14.052;2023-09-19T01:58:06;97761.09;;;16.70;100.00
65276;BME280;51875;49.994;14.052;2023-09-19T01:59:34;97763.41;;;16.74;100.00
65276;BME280;51875;49.994;14.052;2023-09-19T02:00:51;97769.09;;;16.68;100.00
65276;BME280;51875;49.994;14.052;2023-09-19T02:02:08;97764.94;;;16.78;100.00
65276;BME280;51875;49.994;14.052;2023-09-19T02:03:24;97757.09;;;16.77;100.00
65276;BME280;51875;49.994;14.052;2023-09-19T02:04:42;97765.69;;;16.80;100.00
65276;BME280;51875;49.994;14.052;2023-09-19T02:05:58;97771.72;;;16.83;100.00
65276;BME280;51875;49.994;14.052;2023-09-19T02:07:14;97773.19;;;16.87;100.00
65276;BME280;51875;49.994;14.052;2023-09-19T02:08:32;97765.19;;;16.88;100.00
65276;BME280;51875;49.994;14.052;2023-09-19T02:09:49;97769.50;;;16.89;100.00
65276;BME280;51875;49.994;14.052;2023-09-19T02:11:04;97770.16;;;16.93;100.00
65276;BME280;51875;49.994;14.052;2023-09-19T02:12:21;97766.47;;;16.95;100.00
65276;BME280;51875;49.994;14.052;2023-09-19T02:13:37;97778.59;;;17.00;100.00
65276;BME280;51875;49.994;14.052;2023-09-19T02:14:53;97766.84;;;17.04;100.00
65276;BME280;51875;49.994;14.052;2023-09-19T02:16:09;97767.50;;;17.07;100.00
65276;BME280;51875;49.994;14.052;2023-09-19T02:17:26;97770.03;;;17.09;100.00
65276;BME280;51875;49.994;14.052;2023-09-19T02:18:41;97769.94;;;17.11;100.00
65276;BME280;51875;49.994;14.052;2023-09-19T02:19:57;97769.06;;;17.10;100.00
65276;BME280;51875;49.994;14.052;2023-09-19T02:21:14;97773.13;;;17.16;100.00
65276;BME280;51875;49.994;14.052;2023-09-19T02:22:30;97762.53;;;17.16;100.00
65276;BME280;51875;49.994;14.052;2023-09-19T02:23:45;97764.22;;;17.17;100.00
65276;BME280;51875;49.994;14.052;2023-09-19T02:25:02;97762.97;;;17.22;100.00
65276;BME280;51875;49.994;14.052;2023-09-19T02:26:20;97764.59;;;17.25;100.00
65276;BME280;51875;49.994;14.052;2023-09-19T02:27:36;97771.66;;;17.25;100.00
65276;BME280;51875;49.994;14.052;2023-09-19T02:28:52;97766.72;;;17.33;100.00
65276;BME280;51875;49.994;14.052;2023-09-19T02:30:08;97770.84;;;17.37;100.00
65276;BME280;51875;49.994;14.052;2023-09-19T02:31:24;97766.22;;;17.41;100.00
65276;BME280;51875;49.994;14.052;2023-09-19T02:32:39;97764.09;;;17.46;100.00
65276;BME280;51875;49.994;14.052;2023-09-19T02:33:55;97766.66;;;17.47;100.00
65276;BME280;51875;49.994;14.052;2023-09-19T02:35:12;97766.34;;;17.52;100.00
65276;BME280;51875;49.994;14.052;2023-09-19T02:36:27;97763.69;;;17.52;100.00
65276;BME280;51875;49.994;14.052;2023-09-19T02:37:43;97765.59;;;17.63;100.00
65276;BME280;51875;49.994;14.052;2023-09-19T02:38:59;97757.00;;;17.59;100.00
65276;BME280;51875;49.994;14.052;2023-09-19T02:40:15;97762.75;;;17.53;100.00
65276;BME280;51875;49.994;14.052;2023-09-19T02:41:34;97757.97;;;17.45;100.00
65276;BME280;51875;49.994;14.052;2023-09-19T02:42:53;97768.63;;;17.44;100.00
65276;BME280;51875;49.994;14.052;2023-09-19T02:44:08;97756.16;;;17.46;100.00
65276;BME280;51875;49.994;14.052;2023-09-19T02:45:24;97757.00;;;17.46;100.00
65276;BME280;51875;49.994;14.052;2023-09-19T02:46:40;97757.22;;;17.43;100.00
65276;BME280;51875;49.994;14.052;2023-09-19T02:47:56;97755.84;;;17.38;100.00
65276;BME280;51875;49.994;14.052;2023-09-19T02:49:12;97759.66;;;17.33;100.00
65276;BME280;51875;49.994;14.052;2023-09-19T02:50:29;97760.47;;;17.34;100.00
65276;BME280;51875;49.994;14.052;2023-09-19T02:51:44;97756.06;;;17.34;100.00
65276;BME280;51875;49.994;14.052;2023-09-19T02:53:01;97751.28;;;17.27;100.00
65276;BME280;51875;49.994;14.052;2023-09-19T02:54:17;97754.44;;;17.19;100.00
65276;BME280;51875;49.994;14.052;2023-09-19T02:55:32;97751.97;;;17.16;100.00
65276;BME280;51875;49.994;14.052;2023-09-19T02:56:49;97760.84;;;17.15;100.00
65276;BME280;51875;49.994;14.052;2023-09-19T02:58:05;97758.91;;;17.04;100.00
65276;BME280;51875;49.994;14.052;2023-09-19T02:59:23;97759.97;;;17.01;100.00
65276;BME280;51875;49.994;14.052;2023-09-19T03:00:41;97758.34;;;16.99;100.00
65276;BME280;51875;49.994;14.052;2023-09-19T03:02:03;97750.72;;;16.94;100.00
65276;BME280;51875;49.994;14.052;2023-09-19T03:03:19;97746.38;;;16.93;100.00
65276;BME280;51875;49.994;14.052;2023-09-19T03:04:35;97753.56;;;16.91;100.00
65276;BME280;51875;49.994;14.052;2023-09-19T03:05:51;97765.91;;;16.90;100.00
65276;BME280;51875;49.994;14.052;2023-09-19T03:07:08;97753.34;;;16.94;100.00
65276;BME280;51875;49.994;14.052;2023-09-19T03:08:26;97764.13;;;16.91;100.00
65276;BME280;51875;49.994;14.052;2023-09-19T03:09:42;97759.16;;;16.86;100.00
65276;BME280;51875;49.994;14.052;2023-09-19T03:10:58;97762.09;;;16.82;100.00
65276;BME280;51875;49.994;14.052;2023-09-19T03:12:14;97758.41;;;16.84;100.00
65276;BME280;51875;49.994;14.052;2023-09-19T03:13:32;97758.69;;;16.79;100.00
65276;BME280;51875;49.994;14.052;2023-09-19T03:14:47;97762.91;;;16.82;100.00
65276;BME280;51875;49.994;14.052;2023-09-19T03:16:04;97752.25;;;16.84;100.00
65276;BME280;51875;49.994;14.052;2023-09-19T03:17:22;97755.09;;;16.80;100.00
65276;BME280;51875;49.994;14.052;2023-09-19T03:18:37;97758.56;;;16.81;100.00
65276;BME280;51875;49.994;14.052;2023-09-19T03:19:53;97759.53;;;16.80;100.00
65276;BME280;51875;49.994;14.052;2023-09-19T03:21:09;97761.88;;;16.85;100.00
65276;BME280;51875;49.994;14.052;2023-09-19T03:22:26;97763.78;;;16.83;100.00
65276;BME280;51875;49.994;14.052;2023-09-19T03:23:42;97767.38;;;16.82;100.00
65276;BME280;51875;49.994;14.052;2023-09-19T03:25:00;97758.78;;;16.78;100.00
65276;BME280;51875;49.994;14.052;2023-09-19T03:26:16;97770.22;;;16.78;100.00
65276;BME280;51875;49.994;14.052;2023-09-19T03:27:31;97759.72;;;16.77;100.00
65276;BME280;51875;49.994;14.052;2023-09-19T03:28:47;97764.19;;;16.76;100.00
65276;BME280;51875;49.994;14.052;2023-09-19T03:30:03;97764.19;;;16.76;100.00
65276;BME280;51875;49.994;14.052;2023-09-19T03:31:23;97765.97;;;16.76;100.00
65276;BME280;51875;49.994;14.052;2023-09-19T03:32:46;97770.22;;;16.78;100.00
65276;BME280;51875;49.994;14.052;2023-09-19T03:34:02;97763.25;;;16.77;100.00
65276;BME280;51875;49.994;14.052;2023-09-19T03:35:19;97768.78;;;16.87;100.00
65276;BME280;51875;49.994;14.052;2023-09-19T03:36:35;97766.22;;;16.86;100.00
65276;BME280;51875;49.994;14.052;2023-09-19T03:37:50;97772.66;;;16.82;100.00
65276;BME280;51875;49.994;14.052;2023-09-19T03:39:07;97775.09;;;16.85;100.00
65276;BME280;51875;49.994;14.052;2023-09-19T03:40:23;97766.41;;;16.83;100.00
65276;BME280;51875;49.994;14.052;2023-09-19T03:41:40;97772.44;;;16.85;100.00
65276;BME280;51875;49.994;14.052;2023-09-19T03:42:56;97774.16;;;16.86;100.00
65276;BME280;51875;49.994;14.052;2023-09-19T03:44:11;97779.34;;;16.87;100.00
65276;BME280;51875;49.994;14.052;2023-09-19T03:45:27;97777.81;;;16.83;100.00
65276;BME280;51875;49.994;14.052;2023-09-19T03:46:43;97779.72;;;16.81;100.00
65276;BME280;51875;49.994;14.052;2023-09-19T03:47:58;97778.81;;;16.67;100.00
65276;BME280;51875;49.994;14.052;2023-09-19T03:49:14;97776.94;;;16.70;100.00
65276;BME280;51875;49.994;14.052;2023-09-19T03:50:29;97782.22;;;16.70;100.00
65276;BME280;51875;49.994;14.052;2023-09-19T03:51:45;97776.56;;;16.61;100.00
65276;BME280;51875;49.994;14.052;2023-09-19T03:53:00;97777.72;;;16.57;100.00
65276;BME280;51875;49.994;14.052;2023-09-19T03:54:16;97773.06;;;16.61;100.00
65276;BME280;51875;49.994;14.052;2023-09-19T03:55:33;97769.47;;;16.62;100.00
65276;BME280;51875;49.994;14.052;2023-09-19T03:56:50;97772.44;;;16.57;100.00
65276;BME280;51875;49.994;14.052;2023-09-19T03:58:06;97778.75;;;16.55;100.00
65276;BME280;51875;49.994;14.052;2023-09-19T03:59:21;97778.00;;;16.52;100.00
65276;BME280;51875;49.994;14.052;2023-09-19T04:00:37;97775.38;;;16.52;100.00
65276;BME280;51875;49.994;14.052;2023-09-19T04:01:53;97778.75;;;16.55;100.00
65276;BME280;51875;49.994;14.052;2023-09-19T04:03:11;97778.56;;;16.58;100.00
65276;BME280;51875;49.994;14.052;2023-09-19T04:04:34;97774.00;;;16.60;100.00
65276;BME280;51875;49.994;14.052;2023-09-19T04:05:50;97779.41;;;16.58;100.00
65276;BME280;51875;49.994;14.052;2023-09-19T04:07:05;97780.66;;;16.52;100.00
65276;BME280;51875;49.994;14.052;2023-09-19T04:08:21;97785.81;;;16.54;100.00
65276;BME280;51875;49.994;14.052;2023-09-19T04:09:36;97789.41;;;16.53;100.00
65276;BME280;51875;49.994;14.052;2023-09-19T04:10:52;97784.88;;;16.55;100.00
65276;BME280;51875;49.994;14.052;2023-09-19T04:12:08;97791.03;;;16.56;100.00
65276;BME280;51875;49.994;14.052;2023-09-19T04:13:26;97791.28;;;16.65;100.00
65276;BME280;51875;49.994;14.052;2023-09-19T04:14:42;97792.69;;;16.71;100.00
65276;BME280;51875;49.994;14.052;2023-09-19T04:15:57;97799.19;;;16.80;100.00
65276;BME280;51875;49.994;14.052;2023-09-19T04:17:13;97793.06;;;16.79;100.00
65276;BME280;51875;49.994;14.052;2023-09-19T04:18:28;97801.00;;;16.79;100.00
65276;BME280;51875;49.994;14.052;2023-09-19T04:19:46;97795.41;;;16.84;100.00
65276;BME280;51875;49.994;14.052;2023-09-19T04:21:02;97795.50;;;16.83;100.00
65276;BME280;51875;49.994;14.052;2023-09-19T04:22:19;97799.84;;;16.84;100.00
65276;BME280;51875;49.994;14.052;2023-09-19T04:23:34;97800.69;;;16.84;100.00
65276;BME280;51875;49.994;14.052;2023-09-19T04:24:50;97799.53;;;16.88;100.00
65276;BME280;51875;49.994;14.052;2023-09-19T04:26:06;97795.00;;;16.90;100.00
65276;BME280;51875;49.994;14.052;2023-09-19T04:27:21;97795.50;;;16.83;100.00
65276;BME280;51875;49.994;14.052;2023-09-19T04:28:38;97801.53;;;16.85;100.00
65276;BME280;51875;49.994;14.052;2023-09-19T04:29:54;97807.47;;;16.88;100.00
65276;BME280;51875;49.994;14.052;2023-09-19T04:31:14;97804.38;;;16.82;100.00
65276;BME280;51875;49.994;14.052;2023-09-19T04:32:30;97811.56;;;16.79;100.00
65276;BME280;51875;49.994;14.052;2023-09-19T04:33:47;97800.31;;;16.76;100.00
65276;BME280;51875;49.994;14.052;2023-09-19T04:35:03;97807.22;;;16.78;100.00
65276;BME280;51875;49.994;14.052;2023-09-19T04:36:21;97811.00;;;16.74;100.00
65276;BME280;51875;49.994;14.052;2023-09-19T04:37:38;97811.84;;;16.75;100.00
65276;BME280;51875;49.994;14.052;2023-09-19T04:38:54;97811.09;;;16.73;100.00
65276;BME280;51875;49.994;14.052;2023-09-19T04:40:10;97812.69;;;16.75;100.00
65276;BME280;51875;49.994;14.052;2023-09-19T04:41:35;97818.53;;;16.80;100.00
65276;BME280;51875;49.994;14.052;2023-09-19T04:42:56;97818.75;;;16.77;100.00
65276;BME280;51875;49.994;14.052;2023-09-19T04:44:15;97821.94;;;16.83;100.00
65276;BME280;51875;49.994;14.052;2023-09-19T04:45:31;97821.69;;;16.73;100.00
65276;BME280;51875;49.994;14.052;2023-09-19T04:46:47;97834.44;;;16.66;100.00
65276;BME280;51875;49.994;14.052;2023-09-19T04:48:03;97829.97;;;16.66;100.00
65276;BME280;51875;49.994;14.052;2023-09-19T04:49:18;97832.00;;;16.63;100.00
65276;BME280;51875;49.994;14.052;2023-09-19T04:50:34;97828.69;;;16.59;100.00
65276;BME280;51875;49.994;14.052;2023-09-19T04:51:50;97835.66;;;16.60;100.00
65276;BME280;51875;49.994;14.052;2023-09-19T04:53:05;97837.28;;;16.63;100.00
65276;BME280;51875;49.994;14.052;2023-09-19T04:54:22;97839.13;;;16.61;100.00
65276;BME280;51875;49.994;14.052;2023-09-19T04:55:38;97833.03;;;16.60;100.00
65276;BME280;51875;49.994;14.052;2023-09-19T04:56:53;97843.66;;;16.59;100.00
65276;BME280;51875;49.994;14.052;2023-09-19T04:58:09;97844.34;;;16.62;100.00
65276;BME280;51875;49.994;14.052;2023-09-19T04:59:25;97840.84;;;16.62;100.00
65276;BME280;51875;49.994;14.052;2023-09-19T05:00:41;97837.16;;;16.64;100.00
65276;BME280;51875;49.994;14.052;2023-09-19T05:01:56;97843.47;;;16.62;100.00
65276;BME280;51875;49.994;14.052;2023-09-19T05:03:12;97841.78;;;16.61;100.00
65276;BME280;51875;49.994;14.052;2023-09-19T05:04:27;97845.19;;;16.63;100.00
65276;BME280;51875;49.994;14.052;2023-09-19T05:05:43;97846.13;;;16.62;100.00
65276;BME280;51875;49.994;14.052;2023-09-19T05:06:59;97847.84;;;16.63;100.00
65276;BME280;51875;49.994;14.052;2023-09-19T05:08:16;97852.47;;;16.59;100.00
65276;BME280;51875;49.994;14.052;2023-09-19T05:09:32;97851.81;;;16.56;100.00
65276;BME280;51875;49.994;14.052;2023-09-19T05:10:49;97854.25;;;16.59;100.00
65276;BME280;51875;49.994;14.052;2023-09-19T05:12:05;97858.78;;;16.57;100.00
65276;BME280;51875;49.994;14.052;2023-09-19T05:13:21;97862.38;;;16.56;100.00
65276;BME280;51875;49.994;14.052;2023-09-19T05:14:39;97861.44;;;16.57;100.00
65276;BME280;51875;49.994;14.052;2023-09-19T05:16:00;97862.09;;;16.60;100.00
65276;BME280;51875;49.994;14.052;2023-09-19T05:17:17;97860.13;;;16.64;100.00
65276;BME280;51875;49.994;14.052;2023-09-19T05:18:32;97866.63;;;16.73;100.00
65276;BME280;51875;49.994;14.052;2023-09-19T05:19:48;97865.75;;;16.72;100.00
65276;BME280;51875;49.994;14.052;2023-09-19T05:21:04;97865.38;;;16.78;100.00
65276;BME280;51875;49.994;14.052;2023-09-19T05:22:19;97873.19;;;16.80;100.00
65276;BME280;51875;49.994;14.052;2023-09-19T05:23:35;97872.91;;;16.85;100.00
65276;BME280;51875;49.994;14.052;2023-09-19T05:24:52;97869.03;;;16.90;100.00
65276;BME280;51875;49.994;14.052;2023-09-19T05:26:08;97875.34;;;16.88;100.00
65276;BME280;51875;49.994;14.052;2023-09-19T05:27:23;97884.81;;;16.92;100.00
65276;BME280;51875;49.994;14.052;2023-09-19T05:28:39;97878.88;;;16.88;100.00
65276;BME280;51875;49.994;14.052;2023-09-19T05:29:54;97881.50;;;17.03;100.00
65276;BME280;51875;49.994;14.052;2023-09-19T05:31:11;97885.78;;;17.05;100.00
65276;BME280;51875;49.994;14.052;2023-09-19T05:32:26;97885.16;;;17.15;100.00
65276;BME280;51875;49.994;14.052;2023-09-19T05:33:42;97889.00;;;17.23;100.00
65276;BME280;51875;49.994;14.052;2023-09-19T05:34:58;97891.19;;;17.17;100.00
65276;BME280;51875;49.994;14.052;2023-09-19T05:36:13;97888.38;;;17.20;100.00
65276;BME280;51875;49.994;14.052;2023-09-19T05:37:31;97889.00;;;17.23;100.00
65276;BME280;51875;49.994;14.052;2023-09-19T05:38:46;97887.69;;;17.31;100.00
65276;BME280;51875;49.994;14.052;2023-09-19T05:40:05;97884.75;;;17.35;100.00
65276;BME280;51875;49.994;14.052;2023-09-19T05:41:22;97884.00;;;17.33;100.00
65276;BME280;51875;49.994;14.052;2023-09-19T05:42:38;97887.03;;;17.27;100.00
65276;BME280;51875;49.994;14.052;2023-09-19T05:43:54;97885.13;;;17.29;100.00
65276;BME280;51875;49.994;14.052;2023-09-19T05:45:11;97892.31;;;17.27;100.00
65276;BME280;51875;49.994;14.052;2023-09-19T05:46:29;97888.50;;;17.31;100.00
65276;BME280;51875;49.994;14.052;2023-09-19T05:47:45;97885.75;;;17.20;100.00
65276;BME280;51875;49.994;14.052;2023-09-19T05:49:00;97889.22;;;17.20;100.00
65276;BME280;51875;49.994;14.052;2023-09-19T05:50:16;97888.91;;;17.25;100.00
65276;BME280;51875;49.994;14.052;2023-09-19T05:51:34;97890.06;;;17.21;100.00
65276;BME280;51875;49.994;14.052;2023-09-19T05:52:54;97896.78;;;17.27;100.00
65276;BME280;51875;49.994;14.052;2023-09-19T05:54:11;97893.19;;;17.28;100.00
65276;BME280;51875;49.994;14.052;2023-09-19T05:55:26;97891.78;;;17.22;100.00
65276;BME280;51875;49.994;14.052;2023-09-19T05:56:43;97893.91;;;17.30;100.00
65276;BME280;51875;49.994;14.052;2023-09-19T05:58:02;97900.63;;;17.35;100.00
65276;BME280;51875;49.994;14.052;2023-09-19T05:59:19;97893.22;;;17.41;100.00
65276;BME280;51875;49.994;14.052;2023-09-19T06:00:35;97896.38;;;17.33;100.00
65276;BME280;51875;49.994;14.052;2023-09-19T06:01:50;97899.47;;;17.40;100.00
65276;BME280;51875;49.994;14.052;2023-09-19T06:03:07;97902.56;;;17.46;100.00
65276;BME280;51875;49.994;14.052;2023-09-19T06:04:23;97907.84;;;17.46;100.00
65276;BME280;51875;49.994;14.052;2023-09-19T06:05:39;97907.56;;;17.51;100.00
65276;BME280;51875;49.994;14.052;2023-09-19T06:06:56;97911.69;;;17.55;100.00
65276;BME280;51875;49.994;14.052;2023-09-19T06:08:12;97902.59;;;17.59;100.00
65276;BME280;51875;49.994;14.052;2023-09-19T06:09:27;97912.72;;;17.67;100.00
65276;BME280;51875;49.994;14.052;2023-09-19T06:10:43;97912.59;;;17.69;100.00
65276;BME280;51875;49.994;14.052;2023-09-19T06:11:59;97912.50;;;17.70;100.00
65276;BME280;51875;49.994;14.052;2023-09-19T06:13:18;97915.59;;;17.77;100.00
65276;BME280;51875;49.994;14.052;2023-09-19T06:14:35;97916.88;;;17.84;100.00
65276;BME280;51875;49.994;14.052;2023-09-19T06:15:50;97921.13;;;17.87;100.00
65276;BME280;51875;49.994;14.052;2023-09-19T06:17:06;97917.31;;;17.91;100.00
65276;BME280;51875;49.994;14.052;2023-09-19T06:18:22;97928.09;;;17.88;100.00
65276;BME280;51875;49.994;14.052;2023-09-19T06:19:41;97926.84;;;17.93;100.00
65276;BME280;51875;49.994;14.052;2023-09-19T06:21:02;97933.84;;;17.95;100.00
65276;BME280;51875;49.994;14.052;2023-09-19T06:22:23;97928.81;;;18.04;100.00
65276;BME280;51875;49.994;14.052;2023-09-19T06:23:39;97932.75;;;18.12;100.00
65276;BME280;51875;49.994;14.052;2023-09-19T06:24:55;97932.25;;;18.19;100.00
65276;BME280;51875;49.994;14.052;2023-09-19T06:26:11;97932.97;;;18.21;100.00
65276;BME280;51875;49.994;14.052;2023-09-19T06:27:28;97934.16;;;18.30;100.00
65276;BME280;51875;49.994;14.052;2023-09-19T06:28:44;97935.84;;;18.31;100.00
65276;BME280;51875;49.994;14.052;2023-09-19T06:30:00;97942.75;;;18.34;100.00
65276;BME280;51875;49.994;14.052;2023-09-19T06:31:16;97934.81;;;18.34;100.00
65276;BME280;51875;49.994;14.052;2023-09-19T06:32:32;97952.91;;;18.40;100.00
65276;BME280;51875;49.994;14.052;2023-09-19T06:33:48;97951.00;;;18.42;100.00
65276;BME280;51875;49.994;14.052;2023-09-19T06:35:05;97947.75;;;18.52;100.00
65276;BME280;51875;49.994;14.052;2023-09-19T06:36:23;97951.88;;;18.43;100.00
65276;BME280;51875;49.994;14.052;2023-09-19T06:37:38;97956.97;;;18.46;100.00
65276;BME280;51875;49.994;14.052;2023-09-19T06:38:54;97956.66;;;18.51;100.00
65276;BME280;51875;49.994;14.052;2023-09-19T06:40:11;97957.69;;;18.48;100.00
65276;BME280;51875;49.994;14.052;2023-09-19T06:41:30;97956.44;;;18.54;100.00
65276;BME280;51875;49.994;14.052;2023-09-19T06:42:47;97961.75;;;18.67;100.00
65276;BME280;51875;49.994;14.052;2023-09-19T06:44:05;97959.53;;;18.73;100.00
65276;BME280;51875;49.994;14.052;2023-09-19T06:45:21;97960.03;;;18.78;100.00
65276;BME280;51875;49.994;14.052;2023-09-19T06:46:37;97956.13;;;18.84;100.00
65276;BME280;51875;49.994;14.052;2023-09-19T06:47:54;97968.75;;;18.94;100.00
65276;BME280;51875;49.994;14.052;2023-09-19T06:49:13;97966.09;;;18.94;100.00
65276;BME280;51875;49.994;14.052;2023-09-19T06:50:31;97966.19;;;18.92;100.00
65276;BME280;51875;49.994;14.052;2023-09-19T06:51:48;97965.38;;;19.04;100.00
65276;BME280;51875;49.994;14.052;2023-09-19T06:53:04;97980.31;;;19.05;100.00